Shepherd, MT (59079)

9:01 AM MST on December 26, 2014 (GMT -0700)
Lockwood | Change Station
CLOSE
Current Station
Personal Weather Station
Location: Billings, MT
Elevation: 3202 ft
Nearby Weather Stations

Elev 3202 ft 45.82 °N, 108.39 °W | Updated 14 seconds ago

Partly Cloudy
Partly Cloudy
10.2 °F
Feels Like 10 °F
N
0.0
Wind Variable Wind from SSW
Gusts 0.0 mph

Today
High -- | Low -- °F
--% Chance of Precip.
Yesterday
High -- | Low -- °F
Precip. -- in
7:54 AM 4:34 PM
Waxing Crescent, 27% visible
Pressure 30.21 in
Visibility 10.0 miles
Clouds Few 8000 ft
Few 20000 ft
Windchill 10 °F
Dew Point 4 °F
Humidity 77%
Rainfall 0.00 in
Snow Depth Not available.
UV 0 out of 12
Pollen .10 out of 12
Air Quality Not available.
Flu Activity Not available.
METAR KBIL 261553Z 22013KT 10SM FEW080 FEW200 M13/M14 A3004 RMK AO2 SLP228 I1000 T11281144 $

More Conditions Fewer Conditions

Pressure 30.21 in
Visibility 10.0 miles
Clouds Few 8000 ft
Few 20000 ft
Windchill 10 °F
Dew Point 4 °F
Humidity 77%
Rainfall 0.00 in
Snow Depth Not available.
UV 0 out of 12
Pollen .10 out of 12
Air Quality Not available.
Flu Activity Not available.
METAR KBIL 261553Z 22013KT 10SM FEW080 FEW200 M13/M14 A3004 RMK AO2 SLP228 I1000 T11281144 $

More Conditions Fewer Conditions

10-Day Weather Forecast

Almanac

Astronomy

Dec. 26, 2014 Rise Set
Actual Time
Civil Twilight
Nautical Twilight
Astronomical Twilight
Moon
Length of Visible Light
Length of Day
Tomorrow will be .
, % of the Moon is Illuminated

Today's Extremes

State Highs State Lows

Community

WunderPhotos

Upload Photos

1,780,625 photos uploaded!

WunderBlogs® & News

Nearby

Air Quality

  Air Quality AQ Index Pollutant
Not available.

Snow Depth

Station Depth Elevation

Earthquake Activity

City Distance Mag. Time & Date
Minimum magnitude displayed is 2.5.

Coastal Water Temperatures

Place Temperature

Nearby Weather Stations